Time;durP1;ratioP1;P1;durP2;ratioP2;P2;SDS_P1;SDS_P2;PMS_P1;PMS_P2;Temp;Humidity;BMP_temperature;BMP_pressure;BME280_temperature;BME280_humidity;BME280_pressure;Samples;Min_cycle;Max_cycle;Signal;HPM_P1;HPM_P2
2022/05/04 00:00:48;;;;;;;10.38;5.63;;;;;;;10.70;58.29;102176.13;5041613;28;20545;-60
2022/05/04 00:03:14;;;;;;;13.00;5.90;;;;;;;10.67;57.83;102174.31;5038295;28;20052;-59
2022/05/04 00:05:39;;;;;;;15.65;5.82;;;;;;;10.69;58.39;102180.44;5037619;28;20040;-60
2022/05/04 00:08:05;;;;;;;14.48;5.80;;;;;;;10.69;58.69;102180.44;5037040;28;20589;-56
2022/05/04 00:10:34;;;;;;;13.07;5.18;;;;;;;10.69;58.58;102175.25;5011607;28;22582;-59
2022/05/04 00:13:00;;;;;;;11.80;5.30;;;;;;;10.70;58.56;102184.84;5041010;28;20408;-57
2022/05/04 00:15:26;;;;;;;11.65;5.70;;;;;;;10.68;59.05;102183.91;5037280;28;20040;-59
2022/05/04 00:17:51;;;;;;;12.60;5.50;;;;;;;10.67;59.06;102176.94;5033530;28;20056;-59
2022/05/04 00:20:17;;;;;;;11.60;5.63;;;;;;;10.69;58.74;102182.16;5025729;28;20041;-58
2022/05/04 00:22:43;;;;;;;12.40;5.85;;;;;;;10.68;59.22;102178.69;5039944;28;20044;-59
2022/05/04 00:25:09;;;;;;;13.90;6.00;;;;;;;10.70;59.33;102176.13;5038268;28;20357;-59
2022/05/04 00:27:36;;;;;;;17.33;6.20;;;;;;;10.66;59.06;102180.38;5036880;28;20056;-58
2022/05/04 00:30:03;;;;;;;10.85;5.28;;;;;;;10.67;58.24;102170.81;5020207;28;20459;-58
2022/05/04 00:32:29;;;;;;;16.38;5.50;;;;;;;10.65;57.68;102177.69;5032900;28;20312;-59
2022/05/04 00:34:55;;;;;;;10.20;5.57;;;;;;;10.69;57.66;102163.91;5038843;28;20047;-59
2022/05/04 00:37:20;;;;;;;9.75;5.25;;;;;;;10.68;57.79;102168.25;5037305;28;20095;-58
2022/05/04 00:39:47;;;;;;;11.60;5.25;;;;;;;10.68;58.02;102163.03;5037568;28;20542;-59
2022/05/04 00:42:14;;;;;;;10.57;5.47;;;;;;;10.70;58.17;102171.78;5030927;28;20045;-59
2022/05/04 00:44:41;;;;;;;11.38;5.47;;;;;;;10.64;57.78;102170.72;5022279;28;20581;-59
2022/05/04 00:47:07;;;;;;;13.07;5.05;;;;;;;10.68;57.57;102170.84;5040994;28;20048;-59
2022/05/04 00:49:33;;;;;;;13.15;5.28;;;;;;;10.64;57.69;102175.91;5037658;28;20121;-57
2022/05/04 00:51:58;;;;;;;13.57;5.35;;;;;;;10.66;58.02;102177.75;5038668;28;20083;-58
2022/05/04 00:54:24;;;;;;;14.52;5.45;;;;;;;10.65;58.20;102169.88;5031283;28;20358;-57
2022/05/04 00:56:50;;;;;;;11.77;5.38;;;;;;;10.66;58.16;102164.72;5038425;28;20040;-59
2022/05/04 00:59:16;;;;;;;12.10;5.38;;;;;;;10.61;57.85;102161.06;5033901;28;20488;-60
2022/05/04 01:01:42;;;;;;;14.60;5.30;;;;;;;10.58;57.31;102167.06;5037277;28;20056;-59
2022/05/04 01:04:08;;;;;;;13.57;5.45;;;;;;;10.56;57.83;102160.91;5036799;28;20055;-58
2022/05/04 01:06:33;;;;;;;10.98;5.00;;;;;;;10.64;57.73;102166.38;5030496;28;20364;-59
2022/05/04 01:08:59;;;;;;;11.13;5.45;;;;;;;10.58;57.84;102161.84;5040818;28;20049;-60
2022/05/04 01:11:42;;;;;;;12.48;5.53;;;;;;;10.52;57.85;102156.41;5043134;28;20066;-58
2022/05/04 01:14:10;;;;;;;11.73;5.07;;;;;;;10.49;57.72;102165.88;5033595;28;20048;-58
2022/05/04 01:16:39;;;;;;;13.30;4.85;;;;;;;10.46;57.91;102155.31;5034027;28;20040;-59
2022/05/04 01:19:10;;;;;;;9.02;4.93;;;;;;;10.45;57.58;102159.66;5028905;28;20079;-58
2022/05/04 01:21:38;;;;;;;10.35;4.75;;;;;;;10.40;57.68;102165.53;5040721;28;20052;-60
2022/05/04 01:24:08;;;;;;;11.70;4.97;;;;;;;10.38;58.18;102156.78;5036312;28;20048;-59
2022/05/04 01:26:34;;;;;;;11.23;5.10;;;;;;;10.31;58.90;102158.28;5040114;28;20237;-59
2022/05/04 01:29:00;;;;;;;13.43;5.18;;;;;;;10.27;58.83;102155.53;5028499;28;20044;-59
2022/05/04 01:31:26;;;;;;;11.48;5.22;;;;;;;10.23;58.66;102149.31;5035429;28;20601;-59
2022/05/04 01:33:51;;;;;;;13.82;5.30;;;;;;;10.18;58.58;102148.28;5038083;28;20105;-60
2022/05/04 01:36:17;;;;;;;12.45;4.80;;;;;;;10.08;59.03;102152.22;5025098;28;20048;-58
2022/05/04 01:38:42;;;;;;;12.68;5.20;;;;;;;10.00;58.80;102147.59;5036231;28;20044;-61
2022/05/04 01:42:02;;;;;;;10.35;5.22;;;;;;;9.92;58.62;102143.81;5018533;28;20444;-58
2022/05/04 01:43:53;;;;;;;12.85;5.07;;;;;;;9.85;58.74;102150.53;5033599;28;20040;-59
2022/05/04 01:46:19;;;;;;;12.05;4.95;;;;;;;9.78;58.92;102144.19;5027118;28;20147;-60
2022/05/04 01:48:44;;;;;;;12.50;5.07;;;;;;;9.68;58.99;102146.41;5043316;28;20120;-59
2022/05/04 01:51:10;;;;;;;15.55;5.15;;;;;;;9.60;59.08;102143.53;5030720;28;20036;-59
2022/05/04 01:53:35;;;;;;;9.50;4.97;;;;;;;9.56;58.91;102139.03;5032353;28;20647;-58
2022/05/04 01:56:06;;;;;;;11.50;5.22;;;;;;;9.40;59.64;102139.28;5023024;28;20143;-57
2022/05/04 01:58:31;;;;;;;10.70;5.50;;;;;;;9.22;60.71;102139.44;5029479;28;20130;-59
2022/05/04 02:00:58;;;;;;;12.63;5.93;;;;;;;9.07;61.46;102137.97;5041485;28;20119;-60
2022/05/04 02:03:24;;;;;;;12.32;5.70;;;;;;;8.95;62.22;102136.66;5036644;28;20048;-58
2022/05/04 02:05:49;;;;;;;13.00;5.43;;;;;;;8.86;62.75;102136.28;5039280;28;20044;-58
2022/05/04 02:08:14;;;;;;;12.35;5.50;;;;;;;8.76;63.26;102143.66;5025282;28;20066;-58
2022/05/04 02:10:39;;;;;;;11.70;5.35;;;;;;;8.66;63.93;102134.56;5039832;28;20230;-59
2022/05/04 02:13:05;;;;;;;13.50;6.22;;;;;;;8.51;65.42;102132.25;5043440;28;20063;-59
2022/05/04 02:15:30;;;;;;;10.77;5.30;;;;;;;8.48;65.02;102133.81;5029321;28;20072;-59
2022/05/04 02:17:55;;;;;;;10.68;5.50;;;;;;;8.40;65.76;102136.13;5037870;28;20541;-58
2022/05/04 02:20:21;;;;;;;11.68;5.32;;;;;;;8.34;66.27;102135.84;5032436;28;20052;-59
2022/05/04 02:22:46;;;;;;;12.32;5.40;;;;;;;8.28;66.63;102140.75;5030305;28;20066;-59
2022/05/04 02:25:11;;;;;;;14.02;5.60;;;;;;;8.24;66.73;102130.16;5028842;28;20342;-58
2022/05/04 02:27:36;;;;;;;13.60;5.82;;;;;;;8.22;66.66;102131.81;5042343;28;20398;-59
2022/05/04 02:30:02;;;;;;;14.63;6.00;;;;;;;8.14;66.57;102121.97;5033106;28;20503;-59
2022/05/04 02:32:27;;;;;;;12.23;5.70;;;;;;;8.14;66.36;102123.69;5038384;28;20276;-59
2022/05/04 02:37:55;;;;;;;13.02;5.80;;;;;;;8.05;66.16;102126.75;5020954;28;20048;-59
2022/05/04 02:40:21;;;;;;;12.40;5.57;;;;;;;8.01;66.46;102130.06;5012628;28;20697;-58
2022/05/04 02:42:46;;;;;;;13.13;5.43;;;;;;;7.98;66.52;102127.34;5047124;28;20028;-59
2022/05/04 02:45:14;;;;;;;13.93;5.85;;;;;;;7.98;66.60;102129.03;5041793;28;20045;-60
2022/05/04 02:47:40;;;;;;;13.05;5.72;;;;;;;7.92;66.69;102123.59;5040681;28;20032;-59
2022/05/04 02:50:06;;;;;;;14.13;5.95;;;;;;;7.87;66.59;102123.34;5035819;28;20495;-58
2022/05/04 02:52:32;;;;;;;15.73;6.03;;;;;;;7.83;66.63;102117.97;5032576;28;20155;-57
2022/05/04 02:54:57;;;;;;;12.65;5.47;;;;;;;7.79;66.58;102119.56;5041349;28;20464;-60
2022/05/04 02:57:22;;;;;;;10.65;5.78;;;;;;;7.75;66.82;102117.63;5028269;28;20040;-59
2022/05/04 02:59:48;;;;;;;11.73;5.70;;;;;;;7.70;67.04;102121.72;5036757;28;20048;-58
2022/05/04 03:02:28;;;;;;;11.68;6.22;;;;;;;7.65;66.93;102115.44;5035868;28;20040;-60
2022/05/04 03:04:59;;;;;;;13.55;5.60;;;;;;;7.62;67.53;102118.78;5037205;28;20406;-58
2022/05/04 03:07:33;;;;;;;14.02;6.00;;;;;;;7.57;67.71;102119.41;5025547;28;20052;-59
2022/05/04 03:09:59;;;;;;;9.75;5.38;;;;;;;7.52;67.90;102119.19;5038141;28;20118;-59
2022/05/04 03:12:25;;;;;;;13.50;5.68;;;;;;;7.49;67.70;102118.19;5009557;28;20411;-59
2022/05/04 03:14:51;;;;;;;13.48;6.07;;;;;;;7.43;68.12;102113.59;5037821;28;20049;-59
2022/05/04 03:17:17;;;;;;;12.55;5.47;;;;;;;7.41;68.08;102119.53;5038424;28;20064;-59
2022/05/04 03:19:43;;;;;;;12.25;5.70;;;;;;;7.39;68.18;102116.84;5035729;28;20048;-58
2022/05/04 03:22:09;;;;;;;12.10;5.90;;;;;;;7.37;68.55;102112.44;5030331;28;20059;-58
2022/05/04 03:24:34;;;;;;;12.55;5.55;;;;;;;7.33;68.95;102106.19;5032693;28;20486;-58
2022/05/04 03:27:00;;;;;;;14.77;6.40;;;;;;;7.28;68.87;102113.78;5041656;28;20632;-59
2022/05/04 03:29:26;;;;;;;11.48;5.95;;;;;;;7.25;69.21;102111.06;5017510;28;20044;-60
2022/05/04 03:31:51;;;;;;;10.82;6.28;;;;;;;7.23;69.71;102104.00;5041290;28;20045;-60
2022/05/04 03:34:16;;;;;;;12.63;5.82;;;;;;;7.23;69.62;102104.91;5025493;28;20476;-60
2022/05/04 03:36:42;;;;;;;18.90;6.07;;;;;;;7.20;69.75;102102.16;5032723;28;20566;-57
2022/05/04 03:39:07;;;;;;;14.35;6.63;;;;;;;7.15;69.81;102100.16;5035930;28;20052;-59
2022/05/04 03:41:33;;;;;;;12.75;6.13;;;;;;;7.12;69.93;102102.63;5032033;28;20656;-58
2022/05/04 03:44:00;;;;;;;14.82;6.47;;;;;;;7.10;69.99;102096.47;5041567;28;20025;-59
2022/05/04 03:46:39;;;;;;;13.00;6.63;;;;;;;7.07;70.09;102099.81;5031582;28;20044;-58
2022/05/04 03:49:05;;;;;;;14.90;6.45;;;;;;;7.06;70.17;102102.34;5022348;28;20052;-59
2022/05/04 03:51:30;;;;;;;13.27;7.07;;;;;;;7.05;70.45;102101.44;5035661;28;20542;-58
2022/05/04 03:53:55;;;;;;;13.30;6.30;;;;;;;7.05;70.41;102103.16;5032277;28;20373;-59
2022/05/04 03:56:21;;;;;;;14.57;6.38;;;;;;;7.02;70.31;102106.47;5031108;28;20083;-59
2022/05/04 03:58:47;;;;;;;13.10;6.43;;;;;;;7.03;70.54;102104.78;5020488;28;20468;-59
2022/05/04 04:01:13;;;;;;;13.82;6.20;;;;;;;7.03;70.53;102112.56;4999138;28;20908;-57
2022/05/04 04:03:39;;;;;;;15.65;5.97;;;;;;;7.01;70.72;102107.31;5039299;28;20139;-60
2022/05/04 04:06:05;;;;;;;12.52;6.50;;;;;;;7.02;70.52;102111.66;5033783;28;20048;-58
2022/05/04 04:08:31;;;;;;;15.07;6.57;;;;;;;7.02;70.66;102110.78;5031886;28;21943;-59
2022/05/04 04:10:57;;;;;;;11.50;6.32;;;;;;;7.02;70.47;102108.19;5034798;28;20242;-60
2022/05/04 04:13:22;;;;;;;15.18;6.65;;;;;;;7.02;70.94;102097.81;5038015;28;20044;-59
2022/05/04 04:15:51;;;;;;;14.30;6.13;;;;;;;7.05;70.85;102105.75;5034106;28;20503;-59
2022/05/04 04:18:18;;;;;;;12.85;6.47;;;;;;;7.08;70.96;102095.50;5030224;28;20454;-57
2022/05/04 04:23:28;;;;;;;10.33;6.17;;;;;;;7.09;71.30;102100.75;5039612;28;20051;-58
2022/05/04 04:25:53;;;;;;;11.88;5.97;;;;;;;7.16;71.14;102104.53;5031229;28;20048;-59
2022/05/04 04:28:20;;;;;;;13.73;6.68;;;;;;;7.17;70.96;102108.91;5019776;28;21005;-58
2022/05/04 04:30:46;;;;;;;13.40;6.43;;;;;;;7.22;70.75;102108.31;5038376;28;20044;-58
2022/05/04 04:33:12;;;;;;;13.90;6.40;;;;;;;7.23;70.05;102109.19;5036167;28;20134;-58
2022/05/04 04:35:37;;;;;;;16.88;6.57;;;;;;;7.30;69.73;102109.56;5043140;28;20054;-59
2022/05/04 04:38:03;;;;;;;14.65;6.60;;;;;;;7.33;69.68;102114.88;5035793;28;20379;-58
2022/05/04 04:40:29;;;;;;;14.07;6.88;;;;;;;7.41;69.02;102116.94;5030044;28;21706;-56
2022/05/04 04:42:55;;;;;;;13.65;6.85;;;;;;;7.46;68.61;102120.63;5039851;28;20072;-58
2022/05/04 04:45:20;;;;;;;15.63;6.72;;;;;;;7.54;68.70;102121.88;5023686;28;20061;-58
2022/05/04 04:47:47;;;;;;;14.20;6.43;;;;;;;7.73;68.60;102124.47;5019523;28;20047;-60
2022/05/04 04:50:13;;;;;;;11.00;6.53;;;;;;;8.02;67.62;102116.25;5035948;28;20511;-59
2022/05/04 04:52:39;;;;;;;17.48;6.30;;;;;;;8.33;67.01;102117.59;5043029;28;20084;-58
2022/05/04 04:55:05;;;;;;;14.50;6.80;;;;;;;8.84;65.46;102116.25;5021974;28;20119;-59
2022/05/04 04:57:32;;;;;;;12.10;7.00;;;;;;;9.46;63.45;102116.06;5034704;28;20076;-58
2022/05/04 04:59:57;;;;;;;12.23;6.40;;;;;;;9.98;61.64;102118.88;5041095;28;20385;-58
2022/05/04 05:02:23;;;;;;;16.92;7.32;;;;;;;10.34;59.73;102121.91;5031392;28;20036;-61
2022/05/04 05:04:48;;;;;;;15.80;7.18;;;;;;;10.52;59.15;102108.59;5040006;28;20051;-59
2022/05/04 05:07:13;;;;;;;14.32;7.70;;;;;;;10.51;58.71;102112.03;5032751;28;20551;-58
2022/05/04 05:09:39;;;;;;;13.95;7.30;;;;;;;10.40;59.15;102111.69;5034714;28;20044;-57
2022/05/04 05:12:05;;;;;;;13.35;7.03;;;;;;;10.30;59.04;102121.75;5035840;28;20036;-58
2022/05/04 05:17:14;;;;;;;15.63;7.60;;;;;;;10.00;59.72;102124.16;5034793;28;20050;-58
2022/05/04 05:19:40;;;;;;;13.63;7.22;;;;;;;9.80;59.83;102131.25;5030256;28;20052;-58
2022/05/04 05:22:06;;;;;;;16.65;7.70;;;;;;;9.73;61.04;102131.84;5034602;28;20509;-58
2022/05/04 05:24:31;;;;;;;15.35;7.68;;;;;;;9.67;61.34;102129.91;5032170;28;20052;-57
2022/05/04 05:26:57;;;;;;;15.38;7.88;;;;;;;9.66;61.74;102119.44;5034756;28;20056;-58
2022/05/04 05:29:22;;;;;;;14.80;7.60;;;;;;;9.64;62.52;102115.88;5035710;28;20041;-59
2022/05/04 05:31:47;;;;;;;14.95;7.45;;;;;;;9.66;61.67;102117.72;5038505;28;20432;-58
2022/05/04 05:34:13;;;;;;;15.77;7.10;;;;;;;9.71;61.11;102115.25;5012481;28;20052;-61
2022/05/04 05:36:39;;;;;;;15.57;7.65;;;;;;;9.81;61.25;102106.97;5017718;28;20044;-57
2022/05/04 05:39:04;;;;;;;15.88;7.57;;;;;;;9.95;60.79;102117.88;5043956;28;20439;-59
2022/05/04 05:41:31;;;;;;;12.85;6.97;;;;;;;10.03;61.22;102109.50;5048586;28;20033;-59
2022/05/04 05:43:56;;;;;;;15.88;7.45;;;;;;;10.07;61.09;102121.78;5043085;28;20166;-57
2022/05/04 05:46:21;;;;;;;16.38;7.45;;;;;;;10.09;60.12;102114.03;5026446;28;20445;-58
2022/05/04 05:48:47;;;;;;;16.48;7.80;;;;;;;10.27;59.55;102122.53;5023221;28;20048;-59
2022/05/04 05:51:13;;;;;;;13.63;7.63;;;;;;;10.41;58.89;102117.78;5043937;28;20224;-57
2022/05/04 05:53:38;;;;;;;16.60;7.45;;;;;;;10.60;57.72;102117.56;5043698;28;20068;-57
2022/05/04 05:56:04;;;;;;;13.80;7.35;;;;;;;10.77;57.43;102112.91;5021822;28;20507;-59
2022/05/04 05:58:30;;;;;;;17.33;7.53;;;;;;;10.86;56.87;102111.47;5015680;28;20641;-59
2022/05/04 06:00:56;;;;;;;14.52;7.30;;;;;;;10.99;56.58;102110.13;5042086;28;20053;-59
2022/05/04 06:03:22;;;;;;;13.80;6.97;;;;;;;11.22;55.74;102116.06;5036414;28;20381;-59
2022/05/04 06:05:47;;;;;;;14.20;7.18;;;;;;;11.53;54.41;102113.50;5043540;28;20047;-59
2022/05/04 06:08:12;;;;;;;15.27;7.10;;;;;;;11.89;53.83;102113.72;5035355;28;20292;-58
2022/05/04 06:10:38;;;;;;;12.63;7.35;;;;;;;12.86;52.29;102118.84;5027865;28;20051;-59
2022/05/04 06:13:04;;;;;;;16.58;6.82;;;;;;;14.35;48.21;102118.47;5038842;28;20036;-58
2022/05/04 06:15:29;;;;;;;14.50;6.18;;;;;;;16.16;43.35;102106.22;5009922;28;20513;-58
2022/05/04 06:17:55;;;;;;;12.68;6.25;;;;;;;17.68;39.74;102109.97;5036685;28;20090;-58
2022/05/04 06:20:22;;;;;;;13.80;6.10;;;;;;;18.42;37.10;102104.84;5035492;28;20047;-59
2022/05/04 06:22:47;;;;;;;14.05;5.70;;;;;;;18.92;36.61;102098.69;5036139;28;20059;-59
2022/05/04 06:25:13;;;;;;;11.15;5.40;;;;;;;19.19;35.89;102101.28;5043588;28;20740;-58
2022/05/04 06:27:38;;;;;;;12.23;5.47;;;;;;;19.19;34.25;102108.34;5038304;28;20275;-59
2022/05/04 06:35:32;;;;;;;8.40;4.82;;;;;;;19.10;33.68;102108.34;5040122;28;20526;-58
2022/05/04 06:37:57;;;;;;;8.60;4.80;;;;;;;20.23;31.73;102114.94;5039670;28;20247;-57
2022/05/04 06:40:22;;;;;;;12.23;4.88;;;;;;;19.41;33.76;102107.38;5024499;28;20654;-59
2022/05/04 06:42:48;;;;;;;12.18;5.05;;;;;;;18.18;34.67;102113.63;5038196;28;20048;-58
2022/05/04 06:45:13;;;;;;;11.25;4.85;;;;;;;17.97;35.55;102113.59;5041221;28;20044;-59
2022/05/04 06:47:39;;;;;;;10.52;5.13;;;;;;;17.49;35.78;102118.66;5037252;28;20482;-58
2022/05/04 06:50:06;;;;;;;10.95;5.00;;;;;;;17.03;35.92;102121.00;5037765;28;20045;-59
2022/05/04 06:52:32;;;;;;;9.45;5.20;;;;;;;17.18;37.50;102120.22;5010059;28;22191;-60
2022/05/04 06:54:57;;;;;;;9.05;5.25;;;;;;;16.93;36.22;102112.16;5019815;28;20263;-59
2022/05/04 06:57:22;;;;;;;10.88;5.90;;;;;;;17.03;36.77;102111.34;5034711;28;20036;-59
2022/05/04 06:59:49;;;;;;;13.35;6.28;;;;;;;16.19;38.57;102130.78;5042424;28;20207;-59
2022/05/04 07:02:14;;;;;;;16.45;6.75;;;;;;;15.30;41.18;102124.44;5022513;28;20137;-58
2022/05/04 07:04:40;;;;;;;13.00;6.75;;;;;;;15.19;42.46;102129.50;5045993;28;20044;-58
2022/05/04 07:07:05;;;;;;;11.20;6.05;;;;;;;16.13;39.77;102130.72;5031007;28;20089;-58
2022/05/04 07:09:30;;;;;;;11.25;5.68;;;;;;;15.66;40.06;102131.94;5036523;28;20037;-59
2022/05/04 07:11:56;;;;;;;10.55;5.13;;;;;;;15.76;40.23;102124.19;5040381;28;20054;-60
2022/05/04 07:14:22;;;;;;;14.18;6.03;;;;;;;15.18;40.93;102119.88;5014641;28;20051;-60
2022/05/04 07:16:47;;;;;;;12.05;6.30;;;;;;;15.27;40.01;102119.09;5040286;28;20043;-58
2022/05/04 07:19:14;;;;;;;13.18;6.00;;;;;;;15.25;41.63;102129.59;5037270;28;20048;-59
2022/05/04 07:21:39;;;;;;;12.50;5.57;;;;;;;15.95;39.20;102125.28;5032138;28;20045;-60
2022/05/04 07:24:08;;;;;;;13.77;6.40;;;;;;;16.00;39.89;102118.31;5039950;28;20534;-60
2022/05/04 07:26:33;;;;;;;11.50;7.00;;;;;;;15.78;40.26;102119.81;5033549;28;20732;-60
2022/05/04 07:28:59;;;;;;;11.20;6.70;;;;;;;15.60;41.33;102124.88;5041175;28;20086;-59
2022/05/04 07:31:24;;;;;;;10.30;5.93;;;;;;;16.48;38.62;102114.38;5036514;28;20129;-58
2022/05/04 07:33:51;;;;;;;12.98;6.05;;;;;;;17.13;37.58;102111.41;5031290;28;20041;-59
2022/05/04 07:36:16;;;;;;;11.38;5.93;;;;;;;18.89;35.59;102107.53;5033967;28;20037;-59
2022/05/04 07:38:42;;;;;;;8.82;4.95;;;;;;;19.46;33.80;102113.56;5024044;28;20086;-59
2022/05/04 07:43:52;;;;;;;11.13;5.60;;;;;;;18.53;35.42;102110.16;5037922;28;20381;-59
2022/05/04 07:46:17;;;;;;;10.88;5.60;;;;;;;18.53;36.46;102115.44;5023551;28;20048;-60
2022/05/04 07:48:42;;;;;;;9.15;5.30;;;;;;;19.53;33.91;102117.06;5028935;28;20141;-59
2022/05/04 07:51:08;;;;;;;10.90;5.07;;;;;;;19.03;34.09;102113.66;5031865;28;20483;-59
2022/05/04 07:53:33;;;;;;;10.10;4.93;;;;;;;19.29;34.13;102116.25;5037605;28;20044;-59
2022/05/04 07:56:00;;;;;;;11.13;5.68;;;;;;;19.38;33.98;102116.22;5036462;28;20045;-59
2022/05/04 07:58:25;;;;;;;9.98;5.68;;;;;;;18.39;35.94;102115.41;5031396;28;20310;-60
2022/05/04 08:06:20;;;;;;;8.88;5.47;;;;;;;18.87;36.35;102111.91;5026286;28;20094;-59
2022/05/04 08:08:45;;;;;;;8.32;4.85;;;;;;;19.67;34.15;102118.78;5037645;28;20048;-59
2022/05/04 08:11:10;;;;;;;14.35;5.53;;;;;;;19.00;35.34;102116.31;5039812;28;20059;-59
2022/05/04 08:13:36;;;;;;;10.35;5.40;;;;;;;20.17;32.95;102112.34;5039354;28;20040;-60
2022/05/04 08:16:01;;;;;;;11.43;6.00;;;;;;;19.75;35.63;102116.13;5036491;28;20048;-59
2022/05/04 08:18:26;;;;;;;9.63;5.78;;;;;;;19.79;35.38;102113.44;5029304;28;20308;-59
2022/05/04 08:20:52;;;;;;;10.95;5.15;;;;;;;20.05;33.70;102118.59;5036291;28;20533;-59
2022/05/04 08:23:17;;;;;;;10.80;5.47;;;;;;;19.86;33.58;102116.94;5033134;28;20643;-61
2022/05/04 08:25:44;;;;;;;10.68;5.80;;;;;;;18.99;34.90;102116.31;5037491;28;20219;-59
2022/05/04 08:28:12;;;;;;;10.77;5.75;;;;;;;18.47;36.66;102118.06;5030672;28;20400;-60
2022/05/04 08:30:38;;;;;;;9.27;5.70;;;;;;;18.10;35.69;102123.31;5019061;28;20095;-58
2022/05/04 08:33:03;;;;;;;12.68;5.43;;;;;;;18.16;35.97;102125.06;5035227;28;20033;-60
2022/05/04 08:35:29;;;;;;;14.95;5.72;;;;;;;17.70;37.00;102124.03;5020307;28;20368;-59
2022/05/04 08:37:54;;;;;;;14.88;6.60;;;;;;;17.38;37.77;102124.72;5037563;28;20044;-60
2022/05/04 08:40:20;;;;;;;15.82;6.55;;;;;;;17.13;40.29;102116.69;5030571;28;20893;-59
2022/05/04 08:42:45;;;;;;;10.80;5.95;;;;;;;17.64;37.72;102121.38;5035224;28;20117;-58
2022/05/04 08:45:12;;;;;;;14.38;5.57;;;;;;;18.19;37.17;102128.59;5014566;28;21780;-59
2022/05/04 08:47:41;;;;;;;12.00;5.60;;;;;;;17.64;36.99;102126.63;5027632;28;20663;-59
2022/05/04 08:50:13;;;;;;;9.57;5.47;;;;;;;17.59;37.26;102120.44;5013199;28;20052;-58
2022/05/04 08:52:40;;;;;;;9.60;5.60;;;;;;;17.48;38.27;102119.50;5035717;28;20071;-59
2022/05/04 08:55:07;;;;;;;11.82;6.53;;;;;;;16.98;38.91;102115.72;5031206;28;20593;-59
2022/05/04 08:57:32;;;;;;;13.25;6.65;;;;;;;16.83;39.49;102118.22;5037485;28;20289;-59
2022/05/04 08:59:58;;;;;;;15.27;6.50;;;;;;;16.50;41.79;102126.72;5039192;28;20107;-59
2022/05/04 09:02:23;;;;;;;11.18;6.28;;;;;;;16.51;39.83;102128.47;5030456;28;20052;-59
2022/05/04 09:04:48;;;;;;;12.32;5.82;;;;;;;17.04;39.42;102125.41;5041839;28;20080;-58
2022/05/04 09:07:24;;;;;;;12.45;6.50;;;;;;;16.93;38.92;102127.97;5038925;28;20254;-60
2022/05/04 09:09:53;;;;;;;13.38;6.93;;;;;;;16.86;41.09;102125.28;5024308;28;20041;-59
2022/05/04 09:12:19;;;;;;;13.27;6.40;;;;;;;16.42;42.06;102112.59;5020867;28;20245;-59
2022/05/04 09:14:45;;;;;;;12.77;6.38;;;;;;;16.89;39.74;102123.56;5035341;28;20047;-59
2022/05/04 09:17:13;;;;;;;11.80;6.25;;;;;;;17.07;39.05;102116.66;5025412;28;20446;-58
2022/05/04 09:20:45;;;;;;;13.40;6.43;;;;;;;17.18;40.39;102118.47;5039601;28;20376;-60
2022/05/04 09:22:37;;;;;;;10.95;6.13;;;;;;;17.37;38.05;102111.56;5029765;28;20759;-59
2022/05/04 09:25:03;;;;;;;10.95;5.93;;;;;;;17.16;38.84;102108.78;5033770;28;20059;-59
2022/05/04 09:27:29;;;;;;;10.30;6.10;;;;;;;17.00;39.68;102100.81;5021171;28;20047;-60
2022/05/04 09:29:59;;;;;;;13.45;6.90;;;;;;;16.98;38.91;102093.75;5031529;28;20041;-60
2022/05/04 09:32:30;;;;;;;10.15;6.45;;;;;;;16.93;39.85;102090.22;5034253;28;20136;-59
2022/05/04 09:34:55;;;;;;;13.90;7.22;;;;;;;17.01;40.87;102094.66;5036937;28;20055;-60
2022/05/04 09:45:39;;;;;;;12.07;6.95;;;;;;;17.26;40.03;102093.03;5042191;28;20241;-58
2022/05/04 09:48:05;;;;;;;14.50;7.10;;;;;;;16.44;41.11;102089.81;5042819;28;20052;-59
2022/05/04 09:50:40;;;;;;;12.40;7.00;;;;;;;16.63;41.60;102088.25;5033327;28;20777;-62
2022/05/04 09:53:06;;;;;;;18.10;7.38;;;;;;;16.74;41.90;102086.56;5042728;28;20186;-60
2022/05/04 09:55:33;;;;;;;13.93;7.15;;;;;;;16.34;41.62;102087.09;5034953;28;20044;-59
2022/05/04 09:57:58;;;;;;;12.65;7.22;;;;;;;16.90;40.92;102093.69;5020851;28;20048;-60
2022/05/04 10:00:25;;;;;;;12.55;7.28;;;;;;;17.21;41.43;102096.50;5023876;28;20706;-59
2022/05/04 10:02:55;;;;;;;15.68;6.68;;;;;;;17.66;40.14;102095.91;5038938;28;20383;-60
2022/05/04 10:05:22;;;;;;;11.30;6.72;;;;;;;18.01;40.04;102085.44;5031343;28;20480;-59
2022/05/04 10:07:53;;;;;;;11.43;7.10;;;;;;;18.20;38.25;102085.47;5043972;28;20135;-58
2022/05/04 10:10:24;;;;;;;12.23;6.63;;;;;;;18.48;38.71;102085.50;5031838;28;20049;-59
2022/05/04 10:12:49;;;;;;;13.57;7.35;;;;;;;17.92;37.84;102083.69;5039890;28;20385;-60
2022/05/04 10:15:18;;;;;;;11.73;7.05;;;;;;;17.66;40.39;102085.34;5017238;28;20122;-61
2022/05/04 10:18:04;;;;;;;14.85;8.10;;;;;;;17.91;39.79;102079.28;5034800;28;20144;-63
2022/05/04 10:20:35;;;;;;;14.90;7.38;;;;;;;18.12;38.09;102081.06;5031435;28;20130;-59
2022/05/04 10:23:08;;;;;;;13.40;7.70;;;;;;;17.93;38.95;102079.28;5038765;28;20140;-58
2022/05/04 10:25:34;;;;;;;10.73;6.97;;;;;;;18.04;37.56;102072.25;5019821;28;20430;-60
2022/05/04 10:28:08;;;;;;;16.08;7.60;;;;;;;17.87;38.66;102081.91;5040874;28;20282;-59
2022/05/04 10:30:34;;;;;;;14.27;6.97;;;;;;;18.32;38.53;102076.69;5035439;28;20516;-59
2022/05/04 10:33:08;;;;;;;10.10;6.32;;;;;;;18.74;37.76;102072.28;5037505;28;20048;-59
2022/05/04 10:35:44;;;;;;;13.77;7.70;;;;;;;18.68;37.63;102070.53;5028431;28;20315;-58
2022/05/04 10:38:18;;;;;;;15.60;7.60;;;;;;;18.64;38.19;102066.16;5036512;28;20044;-58
2022/05/04 10:40:55;;;;;;;13.02;7.05;;;;;;;19.00;37.37;102063.44;5041388;28;20044;-59
2022/05/04 10:43:37;;;;;;;12.65;6.47;;;;;;;19.33;37.85;102067.72;5041719;28;20083;-59
2022/05/04 10:46:16;;;;;;;12.73;7.35;;;;;;;19.24;35.91;102067.78;5034721;28;20146;-60
2022/05/04 10:48:59;;;;;;;12.25;7.30;;;;;;;19.23;36.11;102060.72;5038343;28;20048;-60
2022/05/04 10:51:27;;;;;;;12.70;7.18;;;;;;;19.47;36.03;102065.06;5027292;28;20334;-58
2022/05/04 10:54:03;;;;;;;11.85;7.00;;;;;;;19.85;35.86;102065.78;5020512;28;20119;-59
2022/05/04 10:56:45;;;;;;;11.20;7.05;;;;;;;19.84;35.39;102064.00;5022116;28;20881;-59
2022/05/04 10:59:18;;;;;;;11.40;6.72;;;;;;;20.01;34.72;102066.53;5040178;28;20363;-59
2022/05/04 11:01:44;;;;;;;13.65;6.97;;;;;;;20.02;34.04;102059.47;5040953;28;20131;-59
2022/05/04 11:04:09;;;;;;;12.35;7.18;;;;;;;19.89;34.82;102057.78;5030097;28;20155;-58
2022/05/04 11:06:39;;;;;;;9.65;5.68;;;;;;;19.79;35.71;102062.28;5030914;28;20079;-59
2022/05/04 11:09:06;;;;;;;9.38;5.63;;;;;;;20.10;35.70;102065.63;5037349;28;20044;-59
2022/05/04 11:11:32;;;;;;;12.40;6.63;;;;;;;20.02;35.85;102062.13;5036426;28;20033;-59
2022/05/04 11:13:58;;;;;;;10.32;6.18;;;;;;;19.60;36.31;102068.53;5040649;28;20047;-60
2022/05/04 11:16:25;;;;;;;10.00;5.30;;;;;;;20.04;36.27;102065.66;5035689;28;20040;-57
2022/05/04 11:18:50;;;;;;;8.13;4.93;;;;;;;20.52;36.65;102061.78;5034596;28;20056;-58
2022/05/04 11:21:17;;;;;;;12.27;5.43;;;;;;;20.99;36.82;102061.31;5031047;28;20362;-58
2022/05/04 11:23:49;;;;;;;9.38;5.45;;;;;;;21.14;33.54;102065.56;5037528;28;20411;-60
2022/05/04 11:26:22;;;;;;;12.52;5.40;;;;;;;21.04;33.44;102070.13;5026956;28;20120;-59
2022/05/04 11:28:48;;;;;;;;;;;;;;;21.11;35.04;102057.63;5038590;28;20692;-59
2022/05/04 11:31:15;;;;;;;9.93;5.32;;;;;;;21.25;34.43;102061.06;5044298;28;19931;-59
2022/05/04 11:33:42;;;;;;;10.93;5.70;;;;;;;20.90;33.07;102058.78;5044875;28;20202;-57
2022/05/04 11:36:08;;;;;;;8.50;5.40;;;;;;;20.85;33.62;102058.81;5036594;28;20239;-58
2022/05/04 11:38:34;;;;;;;12.00;5.32;;;;;;;20.47;34.08;102050.34;5036918;28;20052;-60
2022/05/04 11:41:00;;;;;;;10.00;5.30;;;;;;;20.47;34.39;102055.66;5026876;28;20048;-59
2022/05/04 11:43:27;;;;;;;10.50;5.80;;;;;;;20.09;34.41;102054.13;5040870;28;20072;-59
2022/05/04 11:45:53;;;;;;;10.45;5.55;;;;;;;20.24;34.28;102053.16;5040787;28;20037;-58
2022/05/04 11:48:19;;;;;;;12.32;5.45;;;;;;;20.42;35.08;102047.75;5025973;28;20785;-58
2022/05/04 11:50:46;;;;;;;11.32;5.55;;;;;;;20.50;33.95;102047.66;5033398;28;20121;-57